Time;durP1;ratioP1;P1;durP2;ratioP2;P2;SDS_P1;SDS_P2;PMS_P1;PMS_P2;Temp;Humidity;BMP_temperature;BMP_pressure;BME280_temperature;BME280_humidity;BME280_pressure;Samples;Min_cycle;Max_cycle;Signal;HPM_P1;HPM_P2
2022/08/09 00:00:01;;;;;;;3.78;2.20;;;14.20;99.90;;;;;;5059865;28;20082;-69
2022/08/09 00:02:27;;;;;;;5.70;2.70;;;14.20;99.90;;;;;;5077806;28;20052;-68
2022/08/09 00:04:53;;;;;;;4.50;2.40;;;14.20;99.90;;;;;;5064384;28;20041;-69
2022/08/09 00:07:18;;;;;;;5.13;2.70;;;14.00;99.90;;;;;;5057718;28;20059;-69
2022/08/09 00:09:44;;;;;;;5.38;2.20;;;14.10;99.90;;;;;;5057741;28;20501;-69
2022/08/09 00:12:09;;;;;;;5.05;2.30;;;14.10;99.90;;;;;;5058260;28;20056;-69
2022/08/09 00:14:35;;;;;;;6.97;3.00;;;14.00;99.90;;;;;;5057758;28;20080;-69
2022/08/09 00:17:02;;;;;;;4.47;2.72;;;14.00;99.90;;;;;;5057895;28;20144;-69
2022/08/09 00:19:27;;;;;;;7.03;2.53;;;14.10;99.90;;;;;;5068521;28;20043;-69
2022/08/09 00:21:53;;;;;;;6.03;2.70;;;13.90;99.90;;;;;;5077501;28;20048;-69
2022/08/09 00:24:19;;;;;;;4.30;2.75;;;14.00;99.90;;;;;;5077558;28;20051;-69
2022/08/09 00:26:44;;;;;;;6.15;2.90;;;13.90;99.90;;;;;;5077159;28;20048;-69
2022/08/09 00:29:10;;;;;;;6.47;3.13;;;13.90;99.90;;;;;;5077484;28;20060;-69
2022/08/09 00:31:36;;;;;;;7.50;2.53;;;13.90;99.90;;;;;;5076982;28;20044;-69
2022/08/09 00:34:01;;;;;;;7.55;2.97;;;13.90;99.90;;;;;;5066254;28;20041;-69
2022/08/09 00:36:27;;;;;;;9.30;3.10;;;13.90;99.90;;;;;;5060009;28;20040;-69
2022/08/09 00:38:53;;;;;;;6.82;2.85;;;13.80;99.90;;;;;;5057860;28;20041;-69
2022/08/09 00:41:21;;;;;;;5.22;2.55;;;13.80;99.90;;;;;;5057011;28;20048;-69
2022/08/09 00:43:48;;;;;;;6.55;2.47;;;13.80;99.90;;;;;;5038747;28;20080;-69
2022/08/09 00:46:14;;;;;;;5.07;2.70;;;13.80;99.90;;;;;;5057528;28;20155;-69
2022/08/09 00:48:40;;;;;;;7.78;3.10;;;13.70;99.90;;;;;;5056731;28;20045;-69
2022/08/09 00:51:06;;;;;;;4.53;2.85;;;13.70;99.90;;;;;;5056668;28;20460;-69
2022/08/09 00:53:33;;;;;;;4.43;2.58;;;13.70;99.90;;;;;;5035706;28;20147;-69
2022/08/09 00:55:59;;;;;;;5.50;2.85;;;13.70;99.90;;;;;;5036141;28;20115;-69
2022/08/09 00:58:24;;;;;;;6.28;3.08;;;13.70;99.90;;;;;;5036062;28;20088;-69
2022/08/09 01:00:53;;;;;;;6.72;3.15;;;13.70;99.90;;;;;;5036921;28;20041;-69
2022/08/09 01:03:35;;;;;;;4.40;3.00;;;13.70;99.90;;;;;;5036494;28;20037;-69
2022/08/09 01:06:08;;;;;;;7.63;2.92;;;13.60;99.90;;;;;;5038544;28;20041;-69
2022/08/09 01:08:42;;;;;;;;;;;13.60;99.90;;;;;;5076785;28;20059;-69
2022/08/09 01:11:45;;;;;;;4.43;2.35;;;13.60;99.90;;;;;;5076246;28;19975;-69
2022/08/09 01:14:57;;;;;;;5.07;3.00;;;13.50;99.90;;;;;;5076217;28;20052;-69
2022/08/09 01:17:28;;;;;;;7.93;3.22;;;13.50;99.90;;;;;;5070960;28;20052;-69
2022/08/09 01:20:04;;;;;;;4.82;2.90;;;13.40;99.90;;;;;;5076303;28;20060;-69
2022/08/09 01:22:40;;;;;;;4.93;2.65;;;13.50;99.90;;;;;;5059785;28;20267;-69
2022/08/09 01:25:35;;;;;;;6.57;2.88;;;13.40;99.90;;;;;;5055868;28;20048;-69
2022/08/09 01:28:04;;;;;;;6.93;2.60;;;13.40;99.90;;;;;;5056050;28;20052;-69
2022/08/09 01:30:30;;;;;;;5.85;2.78;;;13.30;99.90;;;;;;5055765;28;20503;-69
2022/08/09 01:32:57;;;;;;;4.05;2.30;;;13.30;99.90;;;;;;5056404;28;20456;-69
2022/08/09 01:35:29;;;;;;;3.92;2.38;;;13.30;99.90;;;;;;5056090;28;20048;-69
2022/08/09 01:38:04;;;;;;;4.68;3.00;;;13.20;99.90;;;;;;5055571;28;20124;-69
2022/08/09 01:40:34;;;;;;;6.05;2.53;;;13.20;99.90;;;;;;5074384;28;20064;-69
2022/08/09 01:43:00;;;;;;;4.05;2.17;;;13.20;99.90;;;;;;5075904;28;20143;-69
2022/08/09 01:45:27;;;;;;;7.97;3.03;;;13.20;99.90;;;;;;5076248;28;20141;-69
2022/08/09 01:47:55;;;;;;;4.97;2.50;;;13.20;99.90;;;;;;5075815;28;20041;-69
2022/08/09 01:50:22;;;;;;;5.13;2.65;;;13.10;99.90;;;;;;5075430;28;20036;-69
2022/08/09 01:52:48;;;;;;;4.85;2.33;;;13.10;99.90;;;;;;5075477;28;20087;-69
2022/08/09 01:55:15;;;;;;;15.75;3.15;;;13.10;99.90;;;;;;5057118;28;20068;-69
2022/08/09 01:57:44;;;;;;;4.65;2.63;;;13.20;99.90;;;;;;5055689;28;20041;-69
2022/08/09 02:00:10;;;;;;;4.97;2.78;;;13.10;99.90;;;;;;5055622;28;20045;-69
2022/08/09 02:02:40;;;;;;;4.35;2.60;;;13.10;99.90;;;;;;5055981;28;20091;-70
2022/08/09 02:05:09;;;;;;;4.47;2.60;;;13.00;99.90;;;;;;5037431;28;20096;-69
2022/08/09 02:07:45;;;;;;;6.32;2.95;;;13.00;99.90;;;;;;5055125;28;20386;-69
2022/08/09 02:10:20;;;;;;;7.13;2.45;;;13.00;99.90;;;;;;5060762;28;20036;-69
2022/08/09 02:12:47;;;;;;;4.70;2.83;;;13.00;99.90;;;;;;5075494;28;20044;-69
2022/08/09 02:15:16;;;;;;;4.95;2.90;;;13.00;99.90;;;;;;5075208;28;20123;-69
2022/08/09 02:17:45;;;;;;;5.32;2.90;;;12.90;99.90;;;;;;5075630;28;20067;-69
2022/08/09 02:20:11;;;;;;;8.88;2.60;;;12.90;99.90;;;;;;5075192;28;20408;-69
2022/08/09 02:22:47;;;;;;;6.50;3.15;;;12.80;99.90;;;;;;5057154;28;20052;-70
2022/08/09 02:25:26;;;;;;;4.93;2.88;;;12.80;99.90;;;;;;5066722;28;20110;-69
2022/08/09 02:28:00;;;;;;;7.25;3.35;;;12.80;99.90;;;;;;5054656;28;20041;-70
2022/08/09 02:30:31;;;;;;;6.25;3.55;;;12.80;99.90;;;;;;5055371;28;20045;-69
2022/08/09 02:32:59;;;;;;;4.97;2.95;;;12.80;99.90;;;;;;5054949;28;20465;-69
2022/08/09 02:35:26;;;;;;;7.32;3.22;;;12.80;99.90;;;;;;5055166;28;20063;-69
2022/08/09 02:37:56;;;;;;;7.88;3.20;;;12.70;99.90;;;;;;5055272;28;20087;-69
2022/08/09 02:40:23;;;;;;;8.15;3.95;;;12.80;99.90;;;;;;5066103;28;20113;-69
2022/08/09 02:42:51;;;;;;;8.70;3.25;;;12.70;99.90;;;;;;5075126;28;20467;-69
2022/08/09 02:45:24;;;;;;;5.15;3.20;;;12.80;99.90;;;;;;5074882;28;20037;-69
2022/08/09 02:47:52;;;;;;;4.78;2.88;;;12.70;99.90;;;;;;5075277;28;20148;-69
2022/08/09 02:50:53;;;;;;;5.55;2.70;;;12.70;99.90;;;;;;5074907;28;20124;-69
2022/08/09 02:53:27;;;;;;;6.57;3.08;;;12.70;99.90;;;;;;5042452;28;20128;-69
2022/08/09 02:55:55;;;;;;;6.28;3.42;;;12.60;99.90;;;;;;5056608;28;20064;-69
2022/08/09 02:58:25;;;;;;;5.88;3.53;;;12.60;99.90;;;;;;5054582;28;20088;-69
2022/08/09 03:00:51;;;;;;;6.30;2.50;;;12.50;99.90;;;;;;5054879;28;20142;-69
2022/08/09 03:03:18;;;;;;;5.55;2.90;;;12.60;99.90;;;;;;5055169;28;20098;-69
2022/08/09 03:05:45;;;;;;;6.15;3.10;;;12.70;99.90;;;;;;5054672;28;20052;-69
2022/08/09 03:08:12;;;;;;;5.43;3.17;;;12.60;99.90;;;;;;5054479;28;20044;-69
2022/08/09 03:10:40;;;;;;;6.47;3.03;;;12.70;99.90;;;;;;5054706;28;20373;-69
2022/08/09 03:13:06;;;;;;;4.75;2.70;;;12.60;99.90;;;;;;5067022;28;20444;-69
2022/08/09 03:15:32;;;;;;;5.13;2.75;;;12.60;99.90;;;;;;5074806;28;20048;-69
2022/08/09 03:17:59;;;;;;;5.07;2.70;;;12.50;99.90;;;;;;5074822;28;20117;-69
2022/08/09 03:20:26;;;;;;;5.53;2.50;;;12.50;99.90;;;;;;5074625;28;20127;-69
2022/08/09 03:22:53;;;;;;;6.22;3.67;;;12.50;99.90;;;;;;5074652;28;20185;-69
2022/08/09 03:25:19;;;;;;;5.35;2.60;;;12.60;99.90;;;;;;5074570;28;20131;-69
2022/08/09 03:27:51;;;;;;;4.80;2.22;;;12.50;99.90;;;;;;5062399;28;20072;-69
2022/08/09 03:30:17;;;;;;;8.35;3.30;;;12.50;99.90;;;;;;5057941;28;20040;-69
2022/08/09 03:32:43;;;;;;;4.75;2.80;;;12.50;99.90;;;;;;5058083;28;20107;-69
2022/08/09 03:35:11;;;;;;;5.78;2.85;;;12.50;99.90;;;;;;5058383;28;20045;-69
2022/08/09 03:37:38;;;;;;;4.18;2.67;;;12.50;99.90;;;;;;5058152;28;20053;-69
2022/08/09 03:40:05;;;;;;;4.32;2.47;;;12.40;99.90;;;;;;5057996;28;20060;-68
2022/08/09 03:42:30;;;;;;;7.95;3.28;;;12.40;99.90;;;;;;5069770;28;20048;-68
2022/08/09 03:44:56;;;;;;;5.00;2.72;;;12.40;99.90;;;;;;5078100;28;20360;-68
2022/08/09 03:47:21;;;;;;;5.97;2.63;;;12.50;99.90;;;;;;5078361;28;20109;-68
2022/08/09 03:49:49;;;;;;;7.97;2.78;;;12.40;99.90;;;;;;5077932;28;20036;-68
2022/08/09 03:52:17;;;;;;;5.07;2.80;;;12.40;99.90;;;;;;5078119;28;20044;-69
2022/08/09 03:54:45;;;;;;;5.95;3.22;;;12.40;99.90;;;;;;5077965;28;20054;-68
2022/08/09 03:57:13;;;;;;;6.00;3.10;;;12.40;99.90;;;;;;5065966;28;20051;-68
2022/08/09 03:59:40;;;;;;;4.25;2.40;;;12.40;99.90;;;;;;5057924;28;20158;-68
2022/08/09 04:02:06;;;;;;;7.22;2.72;;;12.40;99.90;;;;;;5058029;28;20067;-68
2022/08/09 04:04:33;;;;;;;4.00;2.58;;;12.30;99.90;;;;;;5057854;28;20410;-69
2022/08/09 04:06:59;;;;;;;5.57;2.78;;;12.40;99.90;;;;;;5057680;28;20041;-69
2022/08/09 04:09:25;;;;;;;4.28;2.30;;;12.30;99.90;;;;;;5057646;28;20365;-69
2022/08/09 04:11:58;;;;;;;4.65;2.55;;;12.60;99.90;;;;;;5068097;28;20036;-68
2022/08/09 04:14:24;;;;;;;4.95;2.45;;;12.40;99.90;;;;;;5077969;28;20041;-69
2022/08/09 04:16:49;;;;;;;7.82;2.63;;;12.40;99.90;;;;;;5077817;28;20047;-69
2022/08/09 04:19:15;;;;;;;4.70;2.53;;;12.40;99.90;;;;;;5077378;28;20048;-68
2022/08/09 04:21:41;;;;;;;4.65;2.60;;;12.40;99.90;;;;;;5076639;28;20049;-68
2022/08/09 04:24:07;;;;;;;4.70;2.42;;;12.40;99.90;;;;;;5077690;28;20041;-68
2022/08/09 04:26:33;;;;;;;4.88;2.58;;;12.40;99.90;;;;;;5066392;28;20036;-68
2022/08/09 04:28:58;;;;;;;8.02;2.80;;;12.40;99.90;;;;;;5040298;28;20060;-68
2022/08/09 04:31:25;;;;;;;4.22;1.95;;;12.50;99.90;;;;;;5057457;28;20041;-68
2022/08/09 04:33:51;;;;;;;4.05;2.45;;;12.40;99.90;;;;;;5057163;28;20103;-68
2022/08/09 04:36:16;;;;;;;5.18;2.33;;;12.50;99.90;;;;;;5057320;28;20073;-68
2022/08/09 04:38:42;;;;;;;5.75;2.25;;;12.50;99.90;;;;;;5057291;28;20434;-68
2022/08/09 04:41:08;;;;;;;3.95;2.33;;;12.50;99.90;;;;;;5064358;28;20064;-69
2022/08/09 04:43:33;;;;;;;5.00;2.20;;;12.50;99.90;;;;;;5077175;28;20048;-68
2022/08/09 04:46:00;;;;;;;5.07;2.20;;;12.60;99.90;;;;;;5076763;28;20453;-69
2022/08/09 04:48:26;;;;;;;7.15;2.15;;;12.50;99.90;;;;;;5076974;28;20049;-68
2022/08/09 04:50:51;;;;;;;5.13;2.35;;;12.50;99.90;;;;;;5059335;28;20506;-69
2022/08/09 04:53:17;;;;;;;5.53;2.47;;;12.60;99.90;;;;;;5076912;28;20036;-68
2022/08/09 04:55:43;;;;;;;4.00;2.33;;;12.60;99.90;;;;;;5068679;28;20110;-69
2022/08/09 04:58:09;;;;;;;4.55;2.00;;;12.70;99.90;;;;;;5056433;28;20048;-68
2022/08/09 05:00:35;;;;;;;4.97;2.17;;;12.60;99.90;;;;;;5056966;28;20045;-68
2022/08/09 05:03:03;;;;;;;3.63;1.80;;;12.70;99.90;;;;;;5056204;28;20510;-69
2022/08/09 05:05:30;;;;;;;2.88;1.75;;;12.80;99.90;;;;;;5056722;28;20131;-68
2022/08/09 05:07:56;;;;;;;3.80;1.70;;;12.70;99.90;;;;;;5057018;28;20157;-69
2022/08/09 05:10:22;;;;;;;3.25;1.80;;;12.80;99.90;;;;;;5062914;28;20028;-68
2022/08/09 05:12:47;;;;;;;4.72;2.15;;;12.80;99.90;;;;;;5076189;28;20040;-68
2022/08/09 05:15:13;;;;;;;4.53;2.25;;;12.90;99.90;;;;;;5076970;28;20048;-68
2022/08/09 05:17:39;;;;;;;3.83;1.80;;;12.90;99.90;;;;;;5076342;28;20036;-69
2022/08/09 05:20:06;;;;;;;3.72;1.77;;;12.90;99.90;;;;;;5076181;28;20088;-69
2022/08/09 05:22:31;;;;;;;3.80;2.20;;;13.00;99.90;;;;;;5075958;28;20139;-68
2022/08/09 05:24:57;;;;;;;4.43;2.28;;;13.00;99.90;;;;;;5070369;28;20116;-69
2022/08/09 05:27:23;;;;;;;4.32;2.40;;;13.10;99.90;;;;;;5038025;28;20425;-68
2022/08/09 05:29:48;;;;;;;4.55;2.20;;;13.20;99.90;;;;;;5056284;28;20052;-68
2022/08/09 05:32:14;;;;;;;3.80;2.30;;;13.30;99.90;;;;;;5056067;28;20171;-68
2022/08/09 05:34:39;;;;;;;4.40;2.55;;;13.40;99.90;;;;;;5056027;28;20049;-68
2022/08/09 05:37:06;;;;;;;3.97;2.45;;;13.50;99.90;;;;;;5056007;28;20059;-68
2022/08/09 05:39:35;;;;;;;4.10;2.42;;;13.60;99.90;;;;;;5059154;28;20068;-69
2022/08/09 05:42:01;;;;;;;6.95;2.70;;;13.70;99.90;;;;;;5063871;28;20055;-68
2022/08/09 05:44:26;;;;;;;6.15;2.90;;;13.80;99.90;;;;;;5075514;28;20041;-69
2022/08/09 05:46:52;;;;;;;4.55;2.85;;;14.40;99.90;;;;;;5076113;28;20139;-69
2022/08/09 05:49:18;;;;;;;5.25;2.83;;;15.60;99.90;;;;;;5075176;28;20040;-69
2022/08/09 05:51:43;;;;;;;3.90;2.45;;;17.30;99.90;;;;;;5075345;28;20048;-69
2022/08/09 05:54:09;;;;;;;3.22;1.95;;;18.80;99.90;;;;;;5075493;28;20044;-69
2022/08/09 05:56:35;;;;;;;4.43;1.90;;;20.10;99.90;;;;;;5075337;28;20115;-69
2022/08/09 05:59:00;;;;;;;6.30;2.25;;;21.30;99.90;;;;;;5075315;28;20059;-69
2022/08/09 06:01:27;;;;;;;7.05;2.88;;;22.20;99.90;;;;;;5055887;28;20077;-69
2022/08/09 06:03:55;;;;;;;4.13;1.80;;;22.80;99.90;;;;;;5055559;28;20045;-69
2022/08/09 06:06:21;;;;;;;3.72;1.48;;;23.60;99.90;;;;;;5056024;28;20157;-69
2022/08/09 06:08:46;;;;;;;3.75;1.90;;;24.10;99.90;;;;;;5055181;28;20084;-69
2022/08/09 06:11:12;;;;;;;3.97;1.98;;;24.70;99.90;;;;;;5055060;28;20049;-69
2022/08/09 06:13:38;;;;;;;2.72;1.58;;;25.30;99.90;;;;;;5055585;28;20143;-69
2022/08/09 06:16:04;;;;;;;3.17;1.70;;;25.90;99.90;;;;;;5072838;28;20433;-69
2022/08/09 06:18:30;;;;;;;3.45;1.60;;;26.20;99.90;;;;;;5061645;28;20041;-70
2022/08/09 06:20:56;;;;;;;3.70;1.50;;;26.60;99.30;;;;;;5051741;28;20080;-70
2022/08/09 06:23:23;;;;;;;3.10;1.75;;;27.00;98.70;;;;;;5018540;28;20049;-70
2022/08/09 06:25:49;;;;;;;3.92;1.85;;;27.50;98.40;;;;;;5035127;28;20041;-70
2022/08/09 06:28:14;;;;;;;5.45;1.83;;;27.90;98.00;;;;;;5035079;28;20054;-70
2022/08/09 06:30:41;;;;;;;3.65;1.60;;;28.20;96.50;;;;;;5035466;28;20053;-70
2022/08/09 06:33:07;;;;;;;4.35;1.50;;;28.30;96.70;;;;;;5034832;28;20476;-70
2022/08/09 06:35:33;;;;;;;3.78;1.58;;;28.70;96.00;;;;;;5049573;28;20052;-70
2022/08/09 06:37:59;;;;;;;2.95;1.50;;;28.60;96.10;;;;;;5055086;28;20056;-70
2022/08/09 06:40:25;;;;;;;3.60;1.75;;;28.60;95.70;;;;;;5055110;28;20044;-70
2022/08/09 06:42:51;;;;;;;5.22;2.28;;;28.80;95.60;;;;;;5055402;28;20117;-70
2022/08/09 06:45:16;;;;;;;7.60;1.90;;;28.80;96.00;;;;;;5054850;28;20052;-70
2022/08/09 06:47:42;;;;;;;3.53;1.63;;;29.20;95.70;;;;;;5032166;28;20165;-70
2022/08/09 06:50:08;;;;;;;3.75;1.45;;;29.30;94.40;;;;;;5017905;28;20046;-70
2022/08/09 06:52:34;;;;;;;4.57;1.70;;;29.30;95.10;;;;;;5034700;28;20056;-70
2022/08/09 06:55:00;;;;;;;3.67;1.58;;;29.40;94.60;;;;;;5034659;28;20053;-70
2022/08/09 06:57:26;;;;;;;2.65;1.27;;;29.20;94.50;;;;;;5034365;28;20385;-70
2022/08/09 06:59:52;;;;;;;3.97;1.50;;;28.30;94.80;;;;;;5034928;28;20046;-70
2022/08/09 07:02:18;;;;;;;3.30;1.35;;;27.40;95.20;;;;;;5038503;28;20036;-70
2022/08/09 07:04:44;;;;;;;3.53;1.30;;;26.50;96.20;;;;;;5057299;28;20527;-70
2022/08/09 07:07:10;;;;;;;2.17;1.00;;;26.20;96.60;;;;;;5058940;28;20040;-70
2022/08/09 07:09:35;;;;;;;2.30;0.90;;;26.00;96.40;;;;;;5058634;28;20047;-70
2022/08/09 07:12:01;;;;;;;2.33;1.08;;;26.30;97.10;;;;;;5058630;28;20048;-70
2022/08/09 07:14:27;;;;;;;2.28;1.10;;;26.90;97.00;;;;;;5058895;28;20037;-70
2022/08/09 07:16:53;;;;;;;3.80;1.20;;;27.00;96.50;;;;;;5056493;28;20862;-69
2022/08/09 07:19:18;;;;;;;3.17;1.02;;;27.70;96.40;;;;;;5020965;28;20393;-69
2022/08/09 07:21:45;;;;;;;2.25;1.00;;;28.20;96.00;;;;;;5037989;28;20053;-70
2022/08/09 07:24:10;;;;;;;2.72;0.98;;;28.60;95.20;;;;;;5038568;28;20064;-70
2022/08/09 07:26:36;;;;;;;2.20;1.08;;;29.00;94.00;;;;;;5038343;28;20045;-70
2022/08/09 07:29:04;;;;;;;1.30;0.60;;;28.80;94.00;;;;;;5038441;28;20124;-70
2022/08/09 07:31:29;;;;;;;1.38;0.68;;;28.60;92.80;;;;;;5039402;28;20049;-69
2022/08/09 07:33:55;;;;;;;1.13;0.70;;;28.70;93.40;;;;;;5058183;28;20045;-70
2022/08/09 07:36:20;;;;;;;2.60;1.00;;;27.80;93.60;;;;;;5058297;28;20354;-70
2022/08/09 07:38:46;;;;;;;2.40;0.75;;;28.30;93.60;;;;;;5058361;28;20131;-70
2022/08/09 07:41:12;;;;;;;2.67;0.77;;;28.20;93.40;;;;;;5058205;28;20047;-70
2022/08/09 07:43:37;;;;;;;1.20;0.80;;;28.50;94.00;;;;;;5058248;28;20043;-70
2022/08/09 07:46:03;;;;;;;3.40;0.85;;;28.60;93.10;;;;;;5057993;28;20396;-70
2022/08/09 07:48:29;;;;;;;2.63;0.90;;;28.60;93.10;;;;;;5038247;28;20037;-70
2022/08/09 07:50:56;;;;;;;3.28;1.05;;;28.10;93.50;;;;;;5038017;28;20041;-69
2022/08/09 07:53:21;;;;;;;2.97;0.70;;;27.40;93.50;;;;;;5037757;28;20092;-69
2022/08/09 07:55:47;;;;;;;2.13;0.65;;;26.60;93.90;;;;;;5037768;28;20060;-69
2022/08/09 07:58:12;;;;;;;1.35;0.60;;;27.00;94.30;;;;;;5037927;28;20048;-69
2022/08/09 08:00:38;;;;;;;2.88;0.73;;;27.30;93.90;;;;;;5037904;28;20215;-69
2022/08/09 08:03:04;;;;;;;2.83;0.90;;;27.80;93.70;;;;;;5055865;28;20052;-70
2022/08/09 08:05:29;;;;;;;2.38;1.02;;;28.10;93.30;;;;;;5057831;28;20037;-69
2022/08/09 08:07:56;;;;;;;3.38;0.73;;;28.20;93.10;;;;;;5057807;28;20053;-69
2022/08/09 08:10:21;;;;;;;1.58;0.60;;;28.60;93.20;;;;;;5057674;28;20049;-69
2022/08/09 08:12:47;;;;;;;2.78;0.90;;;28.10;92.40;;;;;;5057825;28;20091;-69
2022/08/09 08:15:16;;;;;;;2.13;0.77;;;26.90;92.80;;;;;;5058106;28;20447;-69
2022/08/09 08:17:41;;;;;;;2.10;0.80;;;26.10;93.90;;;;;;5040084;28;20045;-69
2022/08/09 08:20:08;;;;;;;1.15;0.75;;;25.60;94.20;;;;;;5036824;28;20156;-69
2022/08/09 08:22:34;;;;;;;0.75;0.65;;;25.60;95.10;;;;;;5037083;28;20053;-69
2022/08/09 08:24:59;;;;;;;0.63;0.50;;;26.50;95.10;;;;;;5037257;28;20046;-69
2022/08/09 08:27:25;;;;;;;3.95;0.93;;;27.40;94.50;;;;;;5037222;28;20041;-69
2022/08/09 08:29:52;;;;;;;2.92;0.52;;;28.00;93.60;;;;;;5037670;28;20099;-69
2022/08/09 08:32:21;;;;;;;2.97;1.00;;;28.20;93.40;;;;;;5053173;28;20041;-68
2022/08/09 08:34:47;;;;;;;1.55;0.60;;;27.80;93.00;;;;;;5057066;28;20381;-69
2022/08/09 08:37:12;;;;;;;1.38;0.80;;;26.70;93.30;;;;;;5057438;28;20084;-69
2022/08/09 08:39:38;;;;;;;2.70;0.93;;;25.90;94.00;;;;;;5056725;28;20119;-69
2022/08/09 08:42:04;;;;;;;1.55;0.60;;;26.10;94.70;;;;;;5056916;28;20051;-68
2022/08/09 08:44:34;;;;;;;4.75;1.02;;;26.60;94.60;;;;;;5057350;28;20102;-69
2022/08/09 08:47:01;;;;;;;2.75;0.60;;;26.80;93.80;;;;;;5023363;28;20339;-69
2022/08/09 08:49:28;;;;;;;1.33;0.50;;;26.70;94.00;;;;;;5036395;28;20072;-69
2022/08/09 08:51:54;;;;;;;4.07;0.70;;;26.80;93.90;;;;;;5002111;28;20084;-69
2022/08/09 08:54:20;;;;;;;0.90;0.40;;;26.80;93.50;;;;;;5037306;28;20350;-69
2022/08/09 08:56:46;;;;;;;1.15;0.47;;;26.50;93.80;;;;;;5036527;28;20038;-69
2022/08/09 08:59:13;;;;;;;0.38;0.30;;;26.80;93.80;;;;;;5036711;28;20037;-69
2022/08/09 09:01:42;;;;;;;1.88;0.63;;;27.30;93.50;;;;;;5051191;28;20041;-68
2022/08/09 09:04:10;;;;;;;1.20;0.40;;;27.50;92.40;;;;;;5055615;28;20040;-68
2022/08/09 09:06:37;;;;;;;0.45;0.30;;;27.70;92.10;;;;;;5056707;28;20049;-69
2022/08/09 09:09:05;;;;;;;0.88;0.50;;;27.70;92.70;;;;;;5056803;28;20357;-68
2022/08/09 09:11:33;;;;;;;1.38;0.50;;;27.50;92.10;;;;;;5056566;28;20416;-68
2022/08/09 09:14:07;;;;;;;2.25;0.77;;;27.20;92.70;;;;;;5056274;28;20073;-69
2022/08/09 09:16:32;;;;;;;1.40;0.60;;;27.10;93.20;;;;;;5056458;28;20033;-69
2022/08/09 09:19:04;;;;;;;1.45;0.40;;;27.20;93.50;;;;;;5045261;28;20539;-68
2022/08/09 09:21:30;;;;;;;1.47;0.30;;;27.20;92.60;;;;;;5035779;28;20492;-69
2022/08/09 09:24:03;;;;;;;2.33;0.40;;;27.30;93.10;;;;;;5036697;28;20049;-68
2022/08/09 09:26:29;;;;;;;0.40;0.40;;;27.00;92.70;;;;;;5036211;28;20064;-68
2022/08/09 09:28:55;;;;;;;0.95;0.50;;;26.50;93.20;;;;;;5036000;28;20437;-68
2022/08/09 09:31:22;;;;;;;0.73;0.40;;;26.30;93.30;;;;;;5036253;28;20107;-69
2022/08/09 09:33:48;;;;;;;1.75;0.50;;;26.20;93.20;;;;;;5001444;28;20478;-69
2022/08/09 09:36:14;;;;;;;1.40;0.52;;;26.10;93.60;;;;;;5035964;28;20045;-69
2022/08/09 09:38:46;;;;;;;2.17;0.63;;;25.60;93.40;;;;;;5035935;28;20041;-69
2022/08/09 09:41:25;;;;;;;1.02;0.32;;;25.40;93.70;;;;;;5036096;28;20450;-69
2022/08/09 09:43:51;;;;;;;0.98;0.40;;;25.70;94.00;;;;;;5044927;28;20103;-69
2022/08/09 09:46:17;;;;;;;2.25;0.40;;;25.70;93.70;;;;;;5055499;28;20056;-69
2022/08/09 09:49:11;;;;;;;1.88;0.75;;;25.70;93.60;;;;;;5055656;28;20056;-69
2022/08/09 09:51:38;;;;;;;0.55;0.50;;;25.50;94.50;;;;;;5053423;28;20376;-69
2022/08/09 09:54:13;;;;;;;0.40;0.35;;;25.30;94.00;;;;;;5055482;28;20045;-69
2022/08/09 09:56:42;;;;;;;1.40;0.47;;;25.00;94.00;;;;;;5055331;28;20101;-69
2022/08/09 09:59:12;;;;;;;0.75;0.43;;;24.50;94.30;;;;;;5041238;28;20045;-69
2022/08/09 10:01:40;;;;;;;1.73;0.60;;;23.90;94.80;;;;;;5035446;28;20140;-69
2022/08/09 10:04:16;;;;;;;0.90;0.50;;;23.60;95.60;;;;;;5035627;28;20060;-69
2022/08/09 10:06:45;;;;;;;1.15;0.60;;;23.60;95.50;;;;;;5035475;28;20037;-69
2022/08/09 10:09:12;;;;;;;0.63;0.50;;;23.60;95.90;;;;;;5035262;28;20076;-69
2022/08/09 10:11:39;;;;;;;0.43;0.43;;;23.80;95.60;;;;;;5035729;28;20077;-69
2022/08/09 10:14:05;;;;;;;0.65;0.52;;;23.70;95.50;;;;;;5050289;28;20045;-69
2022/08/09 10:16:36;;;;;;;3.00;0.80;;;23.70;95.10;;;;;;5055356;28;20051;-69
2022/08/09 10:19:04;;;;;;;1.30;0.50;;;23.80;95.20;;;;;;5055452;28;20037;-69
2022/08/09 10:21:30;;;;;;;0.80;0.50;;;23.80;95.60;;;;;;5057529;28;20086;-69
2022/08/09 10:24:00;;;;;;;0.80;0.40;;;23.80;95.90;;;;;;5075120;28;20041;-69
2022/08/09 10:26:27;;;;;;;0.88;0.70;;;24.00;95.40;;;;;;5075199;28;20044;-69
2022/08/09 10:28:53;;;;;;;0.63;0.50;;;24.10;95.70;;;;;;5058337;28;20488;-69
2022/08/09 10:31:19;;;;;;;2.33;0.60;;;24.40;95.60;;;;;;5055241;28;20512;-69
2022/08/09 10:33:45;;;;;;;1.88;0.60;;;24.40;95.00;;;;;;5054808;28;20037;-69
2022/08/09 10:36:13;;;;;;;1.40;0.73;;;24.30;95.30;;;;;;5054876;28;20052;-69
2022/08/09 10:38:43;;;;;;;3.10;0.40;;;24.20;95.10;;;;;;5036921;28;20041;-69
2022/08/09 10:41:09;;;;;;;0.50;0.50;;;24.20;95.10;;;;;;5055524;28;20095;-68
2022/08/09 10:43:36;;;;;;;1.25;0.55;;;24.10;95.00;;;;;;5055083;28;20041;-69
2022/08/09 10:46:32;;;;;;;0.80;0.50;;;24.20;95.00;;;;;;5074009;28;20346;-69
2022/08/09 10:49:14;;;;;;;1.15;0.65;;;24.40;95.20;;;;;;5068990;28;20063;-69
2022/08/09 10:51:43;;;;;;;1.58;0.65;;;24.40;95.10;;;;;;5074861;28;20484;-69
2022/08/09 10:54:12;;;;;;;0.40;0.40;;;24.50;95.00;;;;;;5075387;28;20106;-69
2022/08/09 10:56:39;;;;;;;0.85;0.60;;;24.40;94.90;;;;;;5075070;28;20048;-69
2022/08/09 10:59:23;;;;;;;0.98;0.50;;;24.30;95.10;;;;;;5068392;28;20064;-69
2022/08/09 11:01:50;;;;;;;1.95;0.70;;;24.30;95.50;;;;;;5054753;28;20045;-69
2022/08/09 11:04:21;;;;;;;0.50;0.50;;;24.40;95.40;;;;;;5037148;28;20473;-69
2022/08/09 11:06:59;;;;;;;2.65;0.60;;;24.50;95.50;;;;;;5055047;28;20094;-69
2022/08/09 11:09:36;;;;;;;2.47;0.88;;;24.70;95.10;;;;;;5054414;28;20080;-68
2022/08/09 11:12:08;;;;;;;1.77;0.60;;;24.90;95.40;;;;;;5054656;28;20164;-70
2022/08/09 11:14:40;;;;;;;5.43;0.90;;;25.20;94.90;;;;;;5065773;28;20376;-69
2022/08/09 11:17:12;;;;;;;1.08;0.60;;;25.10;94.90;;;;;;5074525;28;20044;-69
2022/08/09 11:19:56;;;;;;;1.92;0.75;;;25.00;95.00;;;;;;5074804;28;20049;-69
2022/08/09 11:22:42;;;;;;;2.08;1.10;;;25.00;95.20;;;;;;5074601;28;20444;-69
2022/08/09 11:25:21;;;;;;;1.73;0.77;;;25.20;95.30;;;;;;5074854;28;20107;-69
2022/08/09 11:27:49;;;;;;;1.85;0.90;;;25.20;94.80;;;;;;5074734;28;20040;-70
2022/08/09 11:30:32;;;;;;;2.75;0.85;;;25.10;95.10;;;;;;5055480;28;20102;-69
2022/08/09 11:33:15;;;;;;;0.88;0.47;;;25.10;94.60;;;;;;5055029;28;20139;-69
2022/08/09 11:35:46;;;;;;;0.68;0.57;;;25.00;95.00;;;;;;5054678;28;20412;-69
2022/08/09 11:38:35;;;;;;;1.05;0.60;;;25.30;94.70;;;;;;5054192;28;20080;-69
2022/08/09 11:41:27;;;;;;;1.52;0.68;;;25.40;94.90;;;;;;5046399;28;20052;-69
2022/08/09 11:43:53;;;;;;;0.50;0.43;;;25.30;95.00;;;;;;5054528;28;20073;-69
2022/08/09 11:46:18;;;;;;;0.68;0.50;;;25.40;95.10;;;;;;5054365;28;20111;-69
2022/08/09 11:48:56;;;;;;;1.33;0.68;;;25.70;95.50;;;;;;5058742;28;20040;-70
2022/08/09 11:51:26;;;;;;;2.40;0.68;;;25.80;94.70;;;;;;5076984;28;20056;-69
2022/08/09 11:54:12;;;;;;;1.05;0.50;;;25.80;94.40;;;;;;5077892;28;20049;-69
2022/08/09 11:56:38;;;;;;;2.75;0.60;;;25.80;95.00;;;;;;5077947;28;20049;-69
2022/08/09 11:59:04;;;;;;;1.10;0.50;;;25.90;94.90;;;;;;5077734;28;20127;-70
2022/08/09 12:01:31;;;;;;;2.25;0.70;;;25.90;94.70;;;;;;5078092;28;20052;-70
2022/08/09 12:04:11;;;;;;;1.55;0.90;;;25.90;94.50;;;;;;5077606;28;20052;-69
2022/08/09 12:06:37;;;;;;;1.08;0.60;;;25.90;94.40;;;;;;5070946;28;20049;-69
2022/08/09 12:09:06;;;;;;;2.13;0.75;;;25.80;94.70;;;;;;5058435;28;20071;-69
2022/08/09 12:11:32;;;;;;;1.15;0.50;;;25.90;95.10;;;;;;5057759;28;20045;-69
2022/08/09 12:14:08;;;;;;;0.73;0.50;;;26.00;94.80;;;;;;5057720;28;20479;-69
2022/08/09 12:16:41;;;;;;;2.00;0.47;;;26.00;94.20;;;;;;5057401;28;20059;-69
2022/08/09 12:19:08;;;;;;;0.55;0.50;;;25.80;94.60;;;;;;5057300;28;20110;-69
2022/08/09 12:21:43;;;;;;;0.88;0.52;;;25.80;94.50;;;;;;5064661;28;20110;-69
2022/08/09 12:24:10;;;;;;;1.05;0.60;;;25.60;94.50;;;;;;5077580;28;20056;-70
2022/08/09 12:26:38;;;;;;;1.40;0.68;;;25.60;94.90;;;;;;5077845;28;20040;-69
2022/08/09 12:29:03;;;;;;;1.17;0.60;;;25.70;94.50;;;;;;5077092;28;20048;-69
2022/08/09 12:31:29;;;;;;;1.05;0.65;;;25.80;94.70;;;;;;5077240;28;20032;-69
2022/08/09 12:33:55;;;;;;;2.30;0.60;;;25.60;94.60;;;;;;5077125;28;20511;-69
2022/08/09 12:36:22;;;;;;;0.73;0.40;;;25.50;94.20;;;;;;5068761;28;20346;-69
2022/08/09 12:38:52;;;;;;;0.40;0.40;;;25.40;94.80;;;;;;5057805;28;20049;-69
2022/08/09 12:41:29;;;;;;;0.43;0.43;;;25.60;95.00;;;;;;5056774;28;20430;-69
2022/08/09 12:43:56;;;;;;;1.52;0.45;;;25.70;94.70;;;;;;5057364;28;20391;-69
2022/08/09 12:46:25;;;;;;;2.10;0.80;;;25.90;94.80;;;;;;5056785;28;20044;-69
2022/08/09 12:48:54;;;;;;;2.75;1.23;;;26.00;94.20;;;;;;5057171;28;20179;-69
2022/08/09 12:51:21;;;;;;;1.60;1.00;;;26.10;94.10;;;;;;5066583;28;20075;-69
2022/08/09 12:53:57;;;;;;;1.17;0.50;;;26.10;94.00;;;;;;5076013;28;20048;-69